sensor_id;sensor_type;location;lat;lon;timestamp;temperature;humidity
19999;DHT22;10160;50.926;4.374;2022-12-07T00:03:39;6.80;99.90
19999;DHT22;10160;50.926;4.374;2022-12-07T00:06:06;6.60;99.90
19999;DHT22;10160;50.926;4.374;2022-12-07T00:08:33;6.60;99.90
19999;DHT22;10160;50.926;4.374;2022-12-07T00:11:08;6.60;99.90
19999;DHT22;10160;50.926;4.374;2022-12-07T00:13:35;6.50;99.90
19999;DHT22;10160;50.926;4.374;2022-12-07T00:16:06;6.40;99.90
19999;DHT22;10160;50.926;4.374;2022-12-07T00:18:33;6.40;99.90
19999;DHT22;10160;50.926;4.374;2022-12-07T00:21:02;6.10;99.90
19999;DHT22;10160;50.926;4.374;2022-12-07T00:23:28;6.30;99.90
19999;DHT22;10160;50.926;4.374;2022-12-07T00:25:53;6.30;99.90
19999;DHT22;10160;50.926;4.374;2022-12-07T00:28:19;6.20;99.90
19999;DHT22;10160;50.926;4.374;2022-12-07T00:30:44;6.20;99.90
19999;DHT22;10160;50.926;4.374;2022-12-07T00:33:10;6.30;99.90
19999;DHT22;10160;50.926;4.374;2022-12-07T00:35:36;6.10;99.90
19999;DHT22;10160;50.926;4.374;2022-12-07T00:38:01;6.10;99.90
19999;DHT22;10160;50.926;4.374;2022-12-07T00:40:27;6.10;99.90
19999;DHT22;10160;50.926;4.374;2022-12-07T00:42:52;6.20;99.90
19999;DHT22;10160;50.926;4.374;2022-12-07T00:45:18;6.00;99.90
19999;DHT22;10160;50.926;4.374;2022-12-07T00:47:44;6.00;99.90
19999;DHT22;10160;50.926;4.374;2022-12-07T00:50:09;6.10;99.90
19999;DHT22;10160;50.926;4.374;2022-12-07T00:52:35;6.00;99.90
19999;DHT22;10160;50.926;4.374;2022-12-07T00:55:00;5.90;99.90
19999;DHT22;10160;50.926;4.374;2022-12-07T00:57:26;5.90;99.90
19999;DHT22;10160;50.926;4.374;2022-12-07T00:59:52;5.90;99.90
19999;DHT22;10160;50.926;4.374;2022-12-07T01:02:21;5.90;99.90
19999;DHT22;10160;50.926;4.374;2022-12-07T01:04:47;5.90;99.90
19999;DHT22;10160;50.926;4.374;2022-12-07T01:07:13;5.80;99.90
19999;DHT22;10160;50.926;4.374;2022-12-07T01:09:38;5.90;99.90
19999;DHT22;10160;50.926;4.374;2022-12-07T01:12:04;6.00;99.90
19999;DHT22;10160;50.926;4.374;2022-12-07T01:14:30;5.90;99.90
19999;DHT22;10160;50.926;4.374;2022-12-07T01:16:55;5.90;99.90
19999;DHT22;10160;50.926;4.374;2022-12-07T01:19:21;5.90;99.90
19999;DHT22;10160;50.926;4.374;2022-12-07T01:21:46;5.70;99.90
19999;DHT22;10160;50.926;4.374;2022-12-07T01:24:12;5.80;99.90
19999;DHT22;10160;50.926;4.374;2022-12-07T01:26:38;5.70;99.90
19999;DHT22;10160;50.926;4.374;2022-12-07T01:29:04;5.60;99.90
19999;DHT22;10160;50.926;4.374;2022-12-07T01:31:29;5.80;99.90
19999;DHT22;10160;50.926;4.374;2022-12-07T01:33:57;5.80;99.90
19999;DHT22;10160;50.926;4.374;2022-12-07T01:36:32;5.70;99.90
19999;DHT22;10160;50.926;4.374;2022-12-07T01:39:00;5.70;99.90
19999;DHT22;10160;50.926;4.374;2022-12-07T01:41:29;5.70;99.90
19999;DHT22;10160;50.926;4.374;2022-12-07T01:44:25;5.90;99.90
19999;DHT22;10160;50.926;4.374;2022-12-07T01:47:03;5.90;99.90
19999;DHT22;10160;50.926;4.374;2022-12-07T01:49:44;5.80;99.90
19999;DHT22;10160;50.926;4.374;2022-12-07T01:52:25;5.70;99.90
19999;DHT22;10160;50.926;4.374;2022-12-07T01:54:59;5.70;99.90
19999;DHT22;10160;50.926;4.374;2022-12-07T01:57:26;5.70;99.90
19999;DHT22;10160;50.926;4.374;2022-12-07T01:59:53;5.80;99.90
19999;DHT22;10160;50.926;4.374;2022-12-07T02:02:39;5.80;99.90
19999;DHT22;10160;50.926;4.374;2022-12-07T02:05:07;5.80;99.90
19999;DHT22;10160;50.926;4.374;2022-12-07T02:07:36;5.90;99.90
19999;DHT22;10160;50.926;4.374;2022-12-07T02:12:53;6.00;99.90
19999;DHT22;10160;50.926;4.374;2022-12-07T02:15:21;6.10;99.90
19999;DHT22;10160;50.926;4.374;2022-12-07T02:18:09;6.20;99.90
19999;DHT22;10160;50.926;4.374;2022-12-07T02:23:38;6.00;99.90
19999;DHT22;10160;50.926;4.374;2022-12-07T02:35:09;6.10;99.90
19999;DHT22;10160;50.926;4.374;2022-12-07T02:37:51;6.10;99.90
19999;DHT22;10160;50.926;4.374;2022-12-07T02:43:34;6.10;99.90
19999;DHT22;10160;50.926;4.374;2022-12-07T02:46:07;6.00;99.90
19999;DHT22;10160;50.926;4.374;2022-12-07T02:48:34;6.00;99.90
19999;DHT22;10160;50.926;4.374;2022-12-07T02:51:00;6.00;99.90
19999;DHT22;10160;50.926;4.374;2022-12-07T02:53:41;5.90;99.90
19999;DHT22;10160;50.926;4.374;2022-12-07T03:07:15;5.90;99.90
19999;DHT22;10160;50.926;4.374;2022-12-07T03:09:52;5.90;99.90
19999;DHT22;10160;50.926;4.374;2022-12-07T03:12:31;5.80;99.90
19999;DHT22;10160;50.926;4.374;2022-12-07T03:15:05;6.00;99.90
19999;DHT22;10160;50.926;4.374;2022-12-07T03:17:34;6.10;99.90
19999;DHT22;10160;50.926;4.374;2022-12-07T03:20:04;5.90;99.90
19999;DHT22;10160;50.926;4.374;2022-12-07T03:22:34;5.90;99.90
19999;DHT22;10160;50.926;4.374;2022-12-07T03:25:04;6.00;99.90
19999;DHT22;10160;50.926;4.374;2022-12-07T03:27:35;6.00;99.90
19999;DHT22;10160;50.926;4.374;2022-12-07T03:30:07;6.10;99.90
19999;DHT22;10160;50.926;4.374;2022-12-07T03:32:40;5.90;99.90
19999;DHT22;10160;50.926;4.374;2022-12-07T03:35:25;5.90;99.90
19999;DHT22;10160;50.926;4.374;2022-12-07T03:40:30;5.80;99.90
19999;DHT22;10160;50.926;4.374;2022-12-07T03:42:59;5.80;99.90
19999;DHT22;10160;50.926;4.374;2022-12-07T03:45:37;5.80;99.90
19999;DHT22;10160;50.926;4.374;2022-12-07T03:50:46;5.80;99.90
19999;DHT22;10160;50.926;4.374;2022-12-07T03:53:19;5.60;99.90
19999;DHT22;10160;50.926;4.374;2022-12-07T03:55:46;5.50;99.90
19999;DHT22;10160;50.926;4.374;2022-12-07T03:58:18;5.50;99.90
19999;DHT22;10160;50.926;4.374;2022-12-07T04:00:46;5.50;99.90
19999;DHT22;10160;50.926;4.374;2022-12-07T04:03:12;5.60;99.90
19999;DHT22;10160;50.926;4.374;2022-12-07T04:05:38;5.40;99.90
19999;DHT22;10160;50.926;4.374;2022-12-07T04:08:04;5.40;99.90
19999;DHT22;10160;50.926;4.374;2022-12-07T04:10:30;5.50;99.90
19999;DHT22;10160;50.926;4.374;2022-12-07T04:12:56;5.50;99.90
19999;DHT22;10160;50.926;4.374;2022-12-07T04:15:22;5.60;99.90
19999;DHT22;10160;50.926;4.374;2022-12-07T04:17:47;5.40;99.90
19999;DHT22;10160;50.926;4.374;2022-12-07T04:20:13;5.50;99.90
19999;DHT22;10160;50.926;4.374;2022-12-07T04:22:39;5.40;99.90
19999;DHT22;10160;50.926;4.374;2022-12-07T04:25:05;5.30;99.90
19999;DHT22;10160;50.926;4.374;2022-12-07T04:27:31;5.30;99.90
19999;DHT22;10160;50.926;4.374;2022-12-07T04:29:56;5.40;99.90
19999;DHT22;10160;50.926;4.374;2022-12-07T04:32:23;5.40;99.90
19999;DHT22;10160;50.926;4.374;2022-12-07T04:34:49;5.30;99.90
19999;DHT22;10160;50.926;4.374;2022-12-07T04:37:15;5.40;99.90
19999;DHT22;10160;50.926;4.374;2022-12-07T04:39:41;5.30;99.90
19999;DHT22;10160;50.926;4.374;2022-12-07T04:42:06;5.30;99.90
19999;DHT22;10160;50.926;4.374;2022-12-07T04:44:32;5.40;99.90
19999;DHT22;10160;50.926;4.374;2022-12-07T04:46:58;5.40;99.90
19999;DHT22;10160;50.926;4.374;2022-12-07T04:49:24;5.30;99.90
19999;DHT22;10160;50.926;4.374;2022-12-07T04:51:50;5.50;99.90
19999;DHT22;10160;50.926;4.374;2022-12-07T04:54:16;5.40;99.90
19999;DHT22;10160;50.926;4.374;2022-12-07T04:56:42;5.40;99.90
19999;DHT22;10160;50.926;4.374;2022-12-07T04:59:09;5.40;99.90
19999;DHT22;10160;50.926;4.374;2022-12-07T05:01:36;5.40;99.90
19999;DHT22;10160;50.926;4.374;2022-12-07T05:04:01;5.30;99.90
19999;DHT22;10160;50.926;4.374;2022-12-07T05:06:27;5.40;99.90
19999;DHT22;10160;50.926;4.374;2022-12-07T05:08:53;5.40;99.90
19999;DHT22;10160;50.926;4.374;2022-12-07T05:11:18;5.40;99.90
19999;DHT22;10160;50.926;4.374;2022-12-07T05:14:13;5.30;99.90
19999;DHT22;10160;50.926;4.374;2022-12-07T05:16:40;5.20;99.90
19999;DHT22;10160;50.926;4.374;2022-12-07T05:19:07;5.00;99.90
19999;DHT22;10160;50.926;4.374;2022-12-07T05:21:33;5.10;99.90
19999;DHT22;10160;50.926;4.374;2022-12-07T05:23:59;5.10;99.90
19999;DHT22;10160;50.926;4.374;2022-12-07T05:26:24;5.20;99.90
19999;DHT22;10160;50.926;4.374;2022-12-07T05:28:54;5.50;99.90
19999;DHT22;10160;50.926;4.374;2022-12-07T05:31:21;5.30;99.90
19999;DHT22;10160;50.926;4.374;2022-12-07T05:33:47;5.30;99.90
19999;DHT22;10160;50.926;4.374;2022-12-07T05:36:13;5.40;99.90
19999;DHT22;10160;50.926;4.374;2022-12-07T05:38:38;5.40;99.90
19999;DHT22;10160;50.926;4.374;2022-12-07T05:41:05;5.40;99.90
19999;DHT22;10160;50.926;4.374;2022-12-07T05:43:33;5.50;99.90
19999;DHT22;10160;50.926;4.374;2022-12-07T05:45:59;5.20;99.90
19999;DHT22;10160;50.926;4.374;2022-12-07T05:48:25;5.30;99.90
19999;DHT22;10160;50.926;4.374;2022-12-07T05:50:51;5.40;99.90
19999;DHT22;10160;50.926;4.374;2022-12-07T05:53:17;5.30;99.90
19999;DHT22;10160;50.926;4.374;2022-12-07T05:55:43;5.20;99.90
19999;DHT22;10160;50.926;4.374;2022-12-07T05:58:09;5.20;99.90
19999;DHT22;10160;50.926;4.374;2022-12-07T06:00:56;5.20;99.90
19999;DHT22;10160;50.926;4.374;2022-12-07T06:03:22;5.20;99.90
19999;DHT22;10160;50.926;4.374;2022-12-07T06:05:48;5.10;99.90
19999;DHT22;10160;50.926;4.374;2022-12-07T06:08:14;5.10;99.90
19999;DHT22;10160;50.926;4.374;2022-12-07T06:10:41;5.20;99.90
19999;DHT22;10160;50.926;4.374;2022-12-07T06:13:07;5.20;99.90
19999;DHT22;10160;50.926;4.374;2022-12-07T06:15:35;5.30;99.90
19999;DHT22;10160;50.926;4.374;2022-12-07T06:18:00;5.40;99.90
19999;DHT22;10160;50.926;4.374;2022-12-07T06:20:26;5.50;99.90
19999;DHT22;10160;50.926;4.374;2022-12-07T06:22:52;5.40;99.90
19999;DHT22;10160;50.926;4.374;2022-12-07T06:25:17;5.30;99.90
19999;DHT22;10160;50.926;4.374;2022-12-07T06:27:43;5.30;99.90
19999;DHT22;10160;50.926;4.374;2022-12-07T06:30:09;5.30;99.90
19999;DHT22;10160;50.926;4.374;2022-12-07T06:32:36;5.30;99.90
19999;DHT22;10160;50.926;4.374;2022-12-07T06:35:03;5.40;99.90
19999;DHT22;10160;50.926;4.374;2022-12-07T06:37:29;5.40;99.90
19999;DHT22;10160;50.926;4.374;2022-12-07T06:39:54;5.30;99.90
19999;DHT22;10160;50.926;4.374;2022-12-07T06:42:20;5.30;99.90
19999;DHT22;10160;50.926;4.374;2022-12-07T06:44:46;5.30;99.90
19999;DHT22;10160;50.926;4.374;2022-12-07T06:47:11;5.50;99.90
19999;DHT22;10160;50.926;4.374;2022-12-07T06:49:37;5.60;99.90
19999;DHT22;10160;50.926;4.374;2022-12-07T06:52:03;5.60;99.90
19999;DHT22;10160;50.926;4.374;2022-12-07T06:54:30;5.60;99.90
19999;DHT22;10160;50.926;4.374;2022-12-07T06:56:56;5.50;99.90
19999;DHT22;10160;50.926;4.374;2022-12-07T06:59:21;5.60;99.90
19999;DHT22;10160;50.926;4.374;2022-12-07T07:01:47;5.70;99.90
19999;DHT22;10160;50.926;4.374;2022-12-07T07:04:13;5.70;99.90
19999;DHT22;10160;50.926;4.374;2022-12-07T07:06:38;5.80;99.90
19999;DHT22;10160;50.926;4.374;2022-12-07T07:09:04;5.60;99.90
19999;DHT22;10160;50.926;4.374;2022-12-07T07:11:29;5.60;99.90
19999;DHT22;10160;50.926;4.374;2022-12-07T07:13:55;5.70;99.90
19999;DHT22;10160;50.926;4.374;2022-12-07T07:16:24;5.50;99.90
19999;DHT22;10160;50.926;4.374;2022-12-07T07:18:49;5.50;99.90
19999;DHT22;10160;50.926;4.374;2022-12-07T07:21:15;5.60;99.90
19999;DHT22;10160;50.926;4.374;2022-12-07T07:23:41;5.50;99.90
19999;DHT22;10160;50.926;4.374;2022-12-07T07:26:06;5.50;99.90
19999;DHT22;10160;50.926;4.374;2022-12-07T07:28:32;5.60;99.90
19999;DHT22;10160;50.926;4.374;2022-12-07T07:30:58;5.50;99.90
19999;DHT22;10160;50.926;4.374;2022-12-07T07:33:24;5.30;99.90
19999;DHT22;10160;50.926;4.374;2022-12-07T07:35:50;5.20;99.90
19999;DHT22;10160;50.926;4.374;2022-12-07T07:38:16;5.30;99.90
19999;DHT22;10160;50.926;4.374;2022-12-07T07:40:41;5.40;99.90
19999;DHT22;10160;50.926;4.374;2022-12-07T07:43:07;5.30;99.90
19999;DHT22;10160;50.926;4.374;2022-12-07T07:45:33;5.50;99.90
19999;DHT22;10160;50.926;4.374;2022-12-07T07:48:01;5.60;99.90
19999;DHT22;10160;50.926;4.374;2022-12-07T07:50:27;5.40;99.90
19999;DHT22;10160;50.926;4.374;2022-12-07T07:52:53;5.60;99.90
19999;DHT22;10160;50.926;4.374;2022-12-07T07:55:18;5.40;99.90
19999;DHT22;10160;50.926;4.374;2022-12-07T07:57:44;5.40;99.90
19999;DHT22;10160;50.926;4.374;2022-12-07T08:00:12;5.40;99.90
19999;DHT22;10160;50.926;4.374;2022-12-07T08:02:39;5.30;99.90
19999;DHT22;10160;50.926;4.374;2022-12-07T08:05:05;5.40;99.90
19999;DHT22;10160;50.926;4.374;2022-12-07T08:07:30;5.60;99.90
19999;DHT22;10160;50.926;4.374;2022-12-07T08:09:56;5.50;99.90
19999;DHT22;10160;50.926;4.374;2022-12-07T08:12:22;5.50;99.90
19999;DHT22;10160;50.926;4.374;2022-12-07T08:14:47;5.30;99.90
19999;DHT22;10160;50.926;4.374;2022-12-07T08:17:13;5.40;99.90
19999;DHT22;10160;50.926;4.374;2022-12-07T08:19:39;5.40;99.90
19999;DHT22;10160;50.926;4.374;2022-12-07T08:22:04;5.50;99.90
19999;DHT22;10160;50.926;4.374;2022-12-07T08:24:32;5.40;99.90
19999;DHT22;10160;50.926;4.374;2022-12-07T08:26:58;5.50;99.90
19999;DHT22;10160;50.926;4.374;2022-12-07T08:29:26;5.70;99.90
19999;DHT22;10160;50.926;4.374;2022-12-07T08:31:52;5.60;99.90
19999;DHT22;10160;50.926;4.374;2022-12-07T08:34:17;5.90;99.90
19999;DHT22;10160;50.926;4.374;2022-12-07T08:36:43;5.90;99.90
19999;DHT22;10160;50.926;4.374;2022-12-07T08:39:09;6.00;99.90
19999;DHT22;10160;50.926;4.374;2022-12-07T08:41:34;6.10;99.90
19999;DHT22;10160;50.926;4.374;2022-12-07T08:44:00;6.20;99.90
19999;DHT22;10160;50.926;4.374;2022-12-07T08:48:58;6.50;99.90
19999;DHT22;10160;50.926;4.374;2022-12-07T08:51:28;6.60;99.90
19999;DHT22;10160;50.926;4.374;2022-12-07T08:53:54;6.60;99.90
19999;DHT22;10160;50.926;4.374;2022-12-07T08:56:20;6.50;99.90
19999;DHT22;10160;50.926;4.374;2022-12-07T08:58:47;6.50;99.90
19999;DHT22;10160;50.926;4.374;2022-12-07T09:01:13;6.50;99.90
19999;DHT22;10160;50.926;4.374;2022-12-07T09:03:39;6.50;99.90
19999;DHT22;10160;50.926;4.374;2022-12-07T09:06:05;6.60;99.90
19999;DHT22;10160;50.926;4.374;2022-12-07T09:08:38;6.80;99.90
19999;DHT22;10160;50.926;4.374;2022-12-07T09:11:05;6.60;99.90
19999;DHT22;10160;50.926;4.374;2022-12-07T09:13:30;6.70;99.90
19999;DHT22;10160;50.926;4.374;2022-12-07T09:15:56;6.60;99.90
19999;DHT22;10160;50.926;4.374;2022-12-07T09:18:22;6.70;99.90
19999;DHT22;10160;50.926;4.374;2022-12-07T09:20:49;6.60;99.90
19999;DHT22;10160;50.926;4.374;2022-12-07T09:23:15;6.60;99.90
19999;DHT22;10160;50.926;4.374;2022-12-07T09:25:40;6.50;99.90
19999;DHT22;10160;50.926;4.374;2022-12-07T09:28:06;6.50;99.90
19999;DHT22;10160;50.926;4.374;2022-12-07T09:30:32;6.50;99.90
19999;DHT22;10160;50.926;4.374;2022-12-07T09:32:58;6.50;99.90
19999;DHT22;10160;50.926;4.374;2022-12-07T09:35:25;6.60;99.90
19999;DHT22;10160;50.926;4.374;2022-12-07T09:37:51;6.80;99.90
19999;DHT22;10160;50.926;4.374;2022-12-07T09:40:19;6.90;99.90
19999;DHT22;10160;50.926;4.374;2022-12-07T09:42:48;7.00;99.90
19999;DHT22;10160;50.926;4.374;2022-12-07T09:45:24;6.90;99.90
19999;DHT22;10160;50.926;4.374;2022-12-07T09:47:50;7.00;99.90
19999;DHT22;10160;50.926;4.374;2022-12-07T09:50:21;7.50;99.90
19999;DHT22;10160;50.926;4.374;2022-12-07T09:52:49;8.20;99.90
19999;DHT22;10160;50.926;4.374;2022-12-07T09:55:19;8.70;99.90
19999;DHT22;10160;50.926;4.374;2022-12-07T09:57:46;9.20;99.90
19999;DHT22;10160;50.926;4.374;2022-12-07T10:00:17;9.50;99.90
19999;DHT22;10160;50.926;4.374;2022-12-07T10:02:44;9.60;99.90
19999;DHT22;10160;50.926;4.374;2022-12-07T10:05:15;9.40;99.90
19999;DHT22;10160;50.926;4.374;2022-12-07T10:07:41;9.20;99.90
19999;DHT22;10160;50.926;4.374;2022-12-07T10:10:15;8.90;99.90
19999;DHT22;10160;50.926;4.374;2022-12-07T10:13:02;8.60;99.90
19999;DHT22;10160;50.926;4.374;2022-12-07T10:15:52;8.40;99.90
19999;DHT22;10160;50.926;4.374;2022-12-07T10:18:34;8.30;99.90
19999;DHT22;10160;50.926;4.374;2022-12-07T10:21:15;8.00;99.90
19999;DHT22;10160;50.926;4.374;2022-12-07T10:24:14;7.80;99.90
19999;DHT22;10160;50.926;4.374;2022-12-07T10:31:42;7.50;99.90
19999;DHT22;10160;50.926;4.374;2022-12-07T10:34:25;7.70;99.90
19999;DHT22;10160;50.926;4.374;2022-12-07T10:36:52;7.70;99.90
19999;DHT22;10160;50.926;4.374;2022-12-07T10:39:21;7.80;99.90
19999;DHT22;10160;50.926;4.374;2022-12-07T10:41:54;7.70;99.90
19999;DHT22;10160;50.926;4.374;2022-12-07T10:44:23;7.70;99.90
19999;DHT22;10160;50.926;4.374;2022-12-07T10:55:33;10.90;99.90
19999;DHT22;10160;50.926;4.374;2022-12-07T11:01:10;10.60;99.90
19999;DHT22;10160;50.926;4.374;2022-12-07T11:25:02;11.50;99.90
19999;DHT22;10160;50.926;4.374;2022-12-07T11:30:23;14.70;99.90
19999;DHT22;10160;50.926;4.374;2022-12-07T11:32:57;16.40;99.90
19999;DHT22;10160;50.926;4.374;2022-12-07T11:35:31;17.30;99.90
19999;DHT22;10160;50.926;4.374;2022-12-07T11:38:12;19.40;99.90
19999;DHT22;10160;50.926;4.374;2022-12-07T11:40:45;19.80;99.90
19999;DHT22;10160;50.926;4.374;2022-12-07T11:43:27;19.30;99.90
19999;DHT22;10160;50.926;4.374;2022-12-07T11:48:41;18.40;99.90
19999;DHT22;10160;50.926;4.374;2022-12-07T11:51:11;18.60;99.90
19999;DHT22;10160;50.926;4.374;2022-12-07T11:53:42;18.60;99.90
19999;DHT22;10160;50.926;4.374;2022-12-07T11:56:16;19.40;99.90
19999;DHT22;10160;50.926;4.374;2022-12-07T12:06:38;15.60;99.90
19999;DHT22;10160;50.926;4.374;2022-12-07T12:09:14;17.10;99.90
19999;DHT22;10160;50.926;4.374;2022-12-07T12:22:42;13.70;99.90
19999;DHT22;10160;50.926;4.374;2022-12-07T12:25:21;14.30;99.90
19999;DHT22;10160;50.926;4.374;2022-12-07T12:27:49;16.00;99.90
19999;DHT22;10160;50.926;4.374;2022-12-07T12:33:02;18.70;99.90
19999;DHT22;10160;50.926;4.374;2022-12-07T12:35:37;20.60;99.90
19999;DHT22;10160;50.926;4.374;2022-12-07T12:38:26;20.00;99.90
19999;DHT22;10160;50.926;4.374;2022-12-07T12:40:54;19.50;99.90
19999;DHT22;10160;50.926;4.374;2022-12-07T12:43:40;18.90;99.90
19999;DHT22;10160;50.926;4.374;2022-12-07T12:49:14;18.60;99.90
19999;DHT22;10160;50.926;4.374;2022-12-07T12:51:45;18.70;99.90
19999;DHT22;10160;50.926;4.374;2022-12-07T12:56:48;18.20;99.90
19999;DHT22;10160;50.926;4.374;2022-12-07T12:59:33;16.90;99.90
19999;DHT22;10160;50.926;4.374;2022-12-07T13:02:24;15.40;99.90
19999;DHT22;10160;50.926;4.374;2022-12-07T13:04:54;14.10;99.90
19999;DHT22;10160;50.926;4.374;2022-12-07T13:15:49;11.50;99.90
19999;DHT22;10160;50.926;4.374;2022-12-07T13:18:23;11.20;99.90
19999;DHT22;10160;50.926;4.374;2022-12-07T13:20:52;10.60;99.90
19999;DHT22;10160;50.926;4.374;2022-12-07T13:23:21;10.30;99.90
19999;DHT22;10160;50.926;4.374;2022-12-07T13:28:31;10.20;99.90
19999;DHT22;10160;50.926;4.374;2022-12-07T13:33:35;10.00;99.90
19999;DHT22;10160;50.926;4.374;2022-12-07T13:36:01;10.70;99.90
19999;DHT22;10160;50.926;4.374;2022-12-07T13:38:32;12.10;99.90
19999;DHT22;10160;50.926;4.374;2022-12-07T13:41:16;12.90;99.90
19999;DHT22;10160;50.926;4.374;2022-12-07T13:43:50;13.60;99.90
19999;DHT22;10160;50.926;4.374;2022-12-07T13:46:19;13.50;99.90
19999;DHT22;10160;50.926;4.374;2022-12-07T13:48:48;13.40;99.90
19999;DHT22;10160;50.926;4.374;2022-12-07T13:51:23;12.90;99.90
19999;DHT22;10160;50.926;4.374;2022-12-07T13:53:53;12.40;99.90
19999;DHT22;10160;50.926;4.374;2022-12-07T13:56:22;11.40;99.90
19999;DHT22;10160;50.926;4.374;2022-12-07T13:58:49;10.40;99.90
19999;DHT22;10160;50.926;4.374;2022-12-07T14:01:15;9.80;99.90
19999;DHT22;10160;50.926;4.374;2022-12-07T14:03:41;9.30;99.90
19999;DHT22;10160;50.926;4.374;2022-12-07T14:06:17;9.00;99.90
19999;DHT22;10160;50.926;4.374;2022-12-07T14:08:43;8.70;99.90
19999;DHT22;10160;50.926;4.374;2022-12-07T14:11:14;8.70;99.90
19999;DHT22;10160;50.926;4.374;2022-12-07T14:13:56;8.60;99.90
19999;DHT22;10160;50.926;4.374;2022-12-07T14:16:33;8.50;99.90
19999;DHT22;10160;50.926;4.374;2022-12-07T14:19:01;8.40;99.90
19999;DHT22;10160;50.926;4.374;2022-12-07T14:21:29;8.30;99.90
19999;DHT22;10160;50.926;4.374;2022-12-07T14:24:22;8.10;99.90
19999;DHT22;10160;50.926;4.374;2022-12-07T14:26:49;8.40;99.90
19999;DHT22;10160;50.926;4.374;2022-12-07T14:31:52;8.10;99.90
19999;DHT22;10160;50.926;4.374;2022-12-07T14:34:20;8.20;99.90
19999;DHT22;10160;50.926;4.374;2022-12-07T14:36:46;8.20;99.90
19999;DHT22;10160;50.926;4.374;2022-12-07T14:39:12;8.00;99.90
19999;DHT22;10160;50.926;4.374;2022-12-07T14:41:37;7.80;99.90
19999;DHT22;10160;50.926;4.374;2022-12-07T14:44:22;8.00;99.90
19999;DHT22;10160;50.926;4.374;2022-12-07T14:46:49;8.10;99.90
19999;DHT22;10160;50.926;4.374;2022-12-07T14:49:15;8.10;99.90
19999;DHT22;10160;50.926;4.374;2022-12-07T14:51:42;8.10;99.90
19999;DHT22;10160;50.926;4.374;2022-12-07T14:54:19;8.20;99.90
19999;DHT22;10160;50.926;4.374;2022-12-07T14:56:46;7.90;99.90
19999;DHT22;10160;50.926;4.374;2022-12-07T14:59:16;8.10;99.90
19999;DHT22;10160;50.926;4.374;2022-12-07T15:01:41;8.00;99.90
19999;DHT22;10160;50.926;4.374;2022-12-07T15:04:07;8.00;99.90
19999;DHT22;10160;50.926;4.374;2022-12-07T15:06:33;7.90;99.90
19999;DHT22;10160;50.926;4.374;2022-12-07T15:08:59;7.90;99.90
19999;DHT22;10160;50.926;4.374;2022-12-07T15:11:24;8.00;99.90
19999;DHT22;10160;50.926;4.374;2022-12-07T15:13:50;7.70;99.90
19999;DHT22;10160;50.926;4.374;2022-12-07T15:16:35;7.70;99.90
19999;DHT22;10160;50.926;4.374;2022-12-07T15:19:01;7.70;99.90
19999;DHT22;10160;50.926;4.374;2022-12-07T15:21:27;7.90;99.90
19999;DHT22;10160;50.926;4.374;2022-12-07T15:23:53;8.00;99.90
19999;DHT22;10160;50.926;4.374;2022-12-07T15:26:19;7.80;99.90
19999;DHT22;10160;50.926;4.374;2022-12-07T15:28:44;7.80;99.90
19999;DHT22;10160;50.926;4.374;2022-12-07T15:31:15;7.80;99.90
19999;DHT22;10160;50.926;4.374;2022-12-07T15:33:41;7.70;99.90
19999;DHT22;10160;50.926;4.374;2022-12-07T15:36:07;7.70;99.90
19999;DHT22;10160;50.926;4.374;2022-12-07T15:38:32;7.50;99.90
19999;DHT22;10160;50.926;4.374;2022-12-07T15:40:58;7.30;99.90
19999;DHT22;10160;50.926;4.374;2022-12-07T15:43:24;7.40;99.90
19999;DHT22;10160;50.926;4.374;2022-12-07T15:46:08;7.30;99.90
19999;DHT22;10160;50.926;4.374;2022-12-07T15:48:34;7.40;99.90
19999;DHT22;10160;50.926;4.374;2022-12-07T15:51:07;7.40;99.90
19999;DHT22;10160;50.926;4.374;2022-12-07T15:53:34;7.40;99.90
19999;DHT22;10160;50.926;4.374;2022-12-07T15:56:00;7.40;99.90
19999;DHT22;10160;50.926;4.374;2022-12-07T15:58:26;7.40;99.90
19999;DHT22;10160;50.926;4.374;2022-12-07T16:00:52;7.40;99.90
19999;DHT22;10160;50.926;4.374;2022-12-07T16:03:17;7.40;99.90
19999;DHT22;10160;50.926;4.374;2022-12-07T16:05:49;7.30;99.90
19999;DHT22;10160;50.926;4.374;2022-12-07T16:08:15;7.30;99.90
19999;DHT22;10160;50.926;4.374;2022-12-07T16:10:40;7.40;99.90
19999;DHT22;10160;50.926;4.374;2022-12-07T16:13:09;7.50;99.90
19999;DHT22;10160;50.926;4.374;2022-12-07T16:15:38;7.60;99.90
19999;DHT22;10160;50.926;4.374;2022-12-07T16:18:04;7.50;99.90
19999;DHT22;10160;50.926;4.374;2022-12-07T16:20:29;7.40;99.90
19999;DHT22;10160;50.926;4.374;2022-12-07T16:22:55;7.50;99.90
19999;DHT22;10160;50.926;4.374;2022-12-07T16:25:20;7.40;99.90
19999;DHT22;10160;50.926;4.374;2022-12-07T16:27:46;7.50;99.90
19999;DHT22;10160;50.926;4.374;2022-12-07T16:30:13;7.40;99.90
19999;DHT22;10160;50.926;4.374;2022-12-07T16:32:39;7.30;99.90
19999;DHT22;10160;50.926;4.374;2022-12-07T16:35:05;7.30;99.90
19999;DHT22;10160;50.926;4.374;2022-12-07T16:37:30;7.40;99.90
19999;DHT22;10160;50.926;4.374;2022-12-07T16:39:56;7.50;99.90
19999;DHT22;10160;50.926;4.374;2022-12-07T16:42:21;7.50;99.90
19999;DHT22;10160;50.926;4.374;2022-12-07T16:44:47;7.60;99.90
19999;DHT22;10160;50.926;4.374;2022-12-07T16:47:13;7.60;99.90
19999;DHT22;10160;50.926;4.374;2022-12-07T16:49:38;7.50;99.90
19999;DHT22;10160;50.926;4.374;2022-12-07T16:52:04;7.70;99.90
19999;DHT22;10160;50.926;4.374;2022-12-07T16:54:30;7.70;99.90
19999;DHT22;10160;50.926;4.374;2022-12-07T16:56:58;7.80;99.90
19999;DHT22;10160;50.926;4.374;2022-12-07T16:59:24;7.90;99.90
19999;DHT22;10160;50.926;4.374;2022-12-07T17:01:49;7.80;99.90
19999;DHT22;10160;50.926;4.374;2022-12-07T17:04:15;7.70;99.90
19999;DHT22;10160;50.926;4.374;2022-12-07T17:06:41;7.70;99.90
19999;DHT22;10160;50.926;4.374;2022-12-07T17:09:06;7.40;99.90
19999;DHT22;10160;50.926;4.374;2022-12-07T17:11:35;7.40;99.90
19999;DHT22;10160;50.926;4.374;2022-12-07T17:14:01;7.30;99.90
19999;DHT22;10160;50.926;4.374;2022-12-07T17:16:46;7.00;99.90
19999;DHT22;10160;50.926;4.374;2022-12-07T17:19:14;7.20;99.90
19999;DHT22;10160;50.926;4.374;2022-12-07T17:21:41;7.10;99.90
19999;DHT22;10160;50.926;4.374;2022-12-07T17:24:09;7.00;99.90
19999;DHT22;10160;50.926;4.374;2022-12-07T17:26:35;6.80;99.90
19999;DHT22;10160;50.926;4.374;2022-12-07T17:29:02;6.80;99.90
19999;DHT22;10160;50.926;4.374;2022-12-07T17:31:28;6.80;99.90
19999;DHT22;10160;50.926;4.374;2022-12-07T17:33:54;6.90;99.90
19999;DHT22;10160;50.926;4.374;2022-12-07T17:36:22;6.90;99.90
19999;DHT22;10160;50.926;4.374;2022-12-07T17:38:49;6.90;99.90
19999;DHT22;10160;50.926;4.374;2022-12-07T17:41:19;6.80;99.90
19999;DHT22;10160;50.926;4.374;2022-12-07T17:44:06;6.80;99.90
19999;DHT22;10160;50.926;4.374;2022-12-07T17:46:32;6.90;99.90
19999;DHT22;10160;50.926;4.374;2022-12-07T17:48:58;6.90;99.90
19999;DHT22;10160;50.926;4.374;2022-12-07T17:51:24;6.90;99.90
19999;DHT22;10160;50.926;4.374;2022-12-07T17:54:09;6.90;99.90
19999;DHT22;10160;50.926;4.374;2022-12-07T17:56:36;6.90;99.90
19999;DHT22;10160;50.926;4.374;2022-12-07T17:59:02;6.90;99.90
19999;DHT22;10160;50.926;4.374;2022-12-07T18:01:28;6.90;99.90